sensor_id;sensor_type;location;lat;lon;timestamp;pressure;altitude;pressure_sealevel;temperature;humidity
41202;BME280;26936;50.524;8.684;2023-03-25T00:02:04;98370.84;;;8.95;100.00
41202;BME280;26936;50.524;8.684;2023-03-25T00:04:29;98361.97;;;8.97;100.00
41202;BME280;26936;50.524;8.684;2023-03-25T00:06:55;98354.59;;;8.81;100.00
41202;BME280;26936;50.524;8.684;2023-03-25T00:09:21;98355.09;;;8.89;100.00
41202;BME280;26936;50.524;8.684;2023-03-25T00:11:49;98356.78;;;8.86;100.00
41202;BME280;26936;50.524;8.684;2023-03-25T00:14:14;98359.59;;;8.86;100.00
41202;BME280;26936;50.524;8.684;2023-03-25T00:16:41;98363.47;;;8.71;100.00
41202;BME280;26936;50.524;8.684;2023-03-25T00:19:07;98367.69;;;8.75;100.00
41202;BME280;26936;50.524;8.684;2023-03-25T00:21:33;98355.69;;;8.75;100.00
41202;BME280;26936;50.524;8.684;2023-03-25T00:23:59;98350.06;;;8.75;100.00
41202;BME280;26936;50.524;8.684;2023-03-25T00:26:25;98361.28;;;8.75;100.00
41202;BME280;26936;50.524;8.684;2023-03-25T00:28:54;98367.38;;;8.64;100.00
41202;BME280;26936;50.524;8.684;2023-03-25T00:31:19;98370.66;;;8.72;100.00
41202;BME280;26936;50.524;8.684;2023-03-25T00:33:44;98370.03;;;8.68;100.00
41202;BME280;26936;50.524;8.684;2023-03-25T00:36:10;98376.88;;;8.67;100.00
41202;BME280;26936;50.524;8.684;2023-03-25T00:38:37;98375.78;;;8.64;100.00
41202;BME280;26936;50.524;8.684;2023-03-25T00:41:16;98372.53;;;8.75;99.54
41202;BME280;26936;50.524;8.684;2023-03-25T00:43:43;98377.84;;;8.73;99.47
41202;BME280;26936;50.524;8.684;2023-03-25T00:46:09;98386.69;;;8.62;100.00
41202;BME280;26936;50.524;8.684;2023-03-25T00:48:35;98387.78;;;8.65;100.00
41202;BME280;26936;50.524;8.684;2023-03-25T00:51:00;98394.19;;;8.65;100.00
41202;BME280;26936;50.524;8.684;2023-03-25T00:53:32;98397.13;;;8.62;100.00
41202;BME280;26936;50.524;8.684;2023-03-25T00:55:58;98391.84;;;8.64;100.00
41202;BME280;26936;50.524;8.684;2023-03-25T00:58:23;98385.28;;;8.67;98.72
41202;BME280;26936;50.524;8.684;2023-03-25T01:00:48;98387.78;;;8.65;97.76
41202;BME280;26936;50.524;8.684;2023-03-25T01:03:14;98391.34;;;8.56;98.34
41202;BME280;26936;50.524;8.684;2023-03-25T01:05:40;98379.75;;;8.45;98.01
41202;BME280;26936;50.524;8.684;2023-03-25T01:08:06;98373.53;;;8.41;98.49
41202;BME280;26936;50.524;8.684;2023-03-25T01:10:34;98371.94;;;8.31;99.62
41202;BME280;26936;50.524;8.684;2023-03-25T01:13:00;98374.75;;;8.31;99.49
41202;BME280;26936;50.524;8.684;2023-03-25T01:15:26;98378.81;;;8.30;99.63
41202;BME280;26936;50.524;8.684;2023-03-25T01:17:51;98372.22;;;8.24;99.64
41202;BME280;26936;50.524;8.684;2023-03-25T01:20:16;98368.19;;;8.25;99.72
41202;BME280;26936;50.524;8.684;2023-03-25T01:22:41;98369.41;;;8.24;99.64
41202;BME280;26936;50.524;8.684;2023-03-25T01:25:07;98357.66;;;8.16;99.47
41202;BME280;26936;50.524;8.684;2023-03-25T01:27:32;98359.81;;;8.12;99.88
41202;BME280;26936;50.524;8.684;2023-03-25T01:29:58;98359.34;;;8.05;99.93
41202;BME280;26936;50.524;8.684;2023-03-25T01:32:23;98359.66;;;8.07;100.00
41202;BME280;26936;50.524;8.684;2023-03-25T01:34:48;98353.09;;;8.01;100.00
41202;BME280;26936;50.524;8.684;2023-03-25T01:37:14;98354.50;;;8.05;99.86
41202;BME280;26936;50.524;8.684;2023-03-25T01:39:39;98343.09;;;8.00;99.62
41202;BME280;26936;50.524;8.684;2023-03-25T01:42:05;98345.97;;;8.09;98.56
41202;BME280;26936;50.524;8.684;2023-03-25T01:46:58;98339.06;;;8.01;98.64
41202;BME280;26936;50.524;8.684;2023-03-25T01:49:32;98345.78;;;8.03;98.60
41202;BME280;26936;50.524;8.684;2023-03-25T01:52:05;98336.53;;;7.94;99.61
41202;BME280;26936;50.524;8.684;2023-03-25T01:54:32;98335.16;;;7.98;99.20
41202;BME280;26936;50.524;8.684;2023-03-25T01:56:57;98341.81;;;7.92;100.00
41202;BME280;26936;50.524;8.684;2023-03-25T01:59:26;98356.06;;;8.06;99.61
41202;BME280;26936;50.524;8.684;2023-03-25T02:01:54;98355.59;;;8.08;98.78
41202;BME280;26936;50.524;8.684;2023-03-25T02:04:54;98343.31;;;8.05;98.97
41202;BME280;26936;50.524;8.684;2023-03-25T02:07:27;98333.97;;;8.08;98.80
41202;BME280;26936;50.524;8.684;2023-03-25T02:09:56;98333.50;;;8.10;99.24
41202;BME280;26936;50.524;8.684;2023-03-25T02:12:23;98332.91;;;8.15;98.67
41202;BME280;26936;50.524;8.684;2023-03-25T02:14:48;98343.41;;;8.23;98.21
41202;BME280;26936;50.524;8.684;2023-03-25T02:17:30;98340.47;;;8.27;97.06
41202;BME280;26936;50.524;8.684;2023-03-25T02:22:57;98340.16;;;8.34;97.58
41202;BME280;26936;50.524;8.684;2023-03-25T02:28:38;98347.03;;;8.42;97.30
41202;BME280;26936;50.524;8.684;2023-03-25T02:31:41;98349.34;;;8.35;97.91
41202;BME280;26936;50.524;8.684;2023-03-25T02:34:28;98323.19;;;8.38;97.98
41202;BME280;26936;50.524;8.684;2023-03-25T02:37:22;98327.53;;;8.30;100.00
41202;BME280;26936;50.524;8.684;2023-03-25T02:40:02;98331.41;;;8.32;100.00
41202;BME280;26936;50.524;8.684;2023-03-25T02:47:48;98322.94;;;8.14;100.00
41202;BME280;26936;50.524;8.684;2023-03-25T02:50:21;98318.22;;;8.11;100.00
41202;BME280;26936;50.524;8.684;2023-03-25T02:52:54;98322.75;;;8.08;100.00
41202;BME280;26936;50.524;8.684;2023-03-25T02:55:22;98314.16;;;8.03;100.00
41202;BME280;26936;50.524;8.684;2023-03-25T02:57:51;98316.03;;;8.06;100.00
41202;BME280;26936;50.524;8.684;2023-03-25T03:00:22;98319.16;;;8.08;100.00
41202;BME280;26936;50.524;8.684;2023-03-25T03:02:57;98326.16;;;8.03;100.00
41202;BME280;26936;50.524;8.684;2023-03-25T03:05:34;98323.66;;;8.05;100.00
41202;BME280;26936;50.524;8.684;2023-03-25T03:08:19;98325.69;;;8.05;100.00
41202;BME280;26936;50.524;8.684;2023-03-25T03:19:17;98283.31;;;8.03;100.00
41202;BME280;26936;50.524;8.684;2023-03-25T03:21:58;98303.53;;;7.98;100.00
41202;BME280;26936;50.524;8.684;2023-03-25T03:24:30;98308.50;;;7.94;100.00
41202;BME280;26936;50.524;8.684;2023-03-25T03:27:08;98309.59;;;7.96;100.00
41202;BME280;26936;50.524;8.684;2023-03-25T03:29:44;98316.00;;;7.97;100.00
41202;BME280;26936;50.524;8.684;2023-03-25T03:32:12;98304.59;;;7.91;100.00
41202;BME280;26936;50.524;8.684;2023-03-25T03:35:02;98308.38;;;7.97;100.00
41202;BME280;26936;50.524;8.684;2023-03-25T03:37:37;98307.91;;;7.99;100.00
41202;BME280;26936;50.524;8.684;2023-03-25T03:40:09;98306.16;;;7.92;100.00
41202;BME280;26936;50.524;8.684;2023-03-25T03:42:54;98301.63;;;7.86;100.00
41202;BME280;26936;50.524;8.684;2023-03-25T03:45:33;98303.22;;;7.96;100.00
41202;BME280;26936;50.524;8.684;2023-03-25T03:48:05;98304.66;;;8.00;100.00
41202;BME280;26936;50.524;8.684;2023-03-25T03:50:55;98300.91;;;8.03;100.00
41202;BME280;26936;50.524;8.684;2023-03-25T03:53:27;98305.72;;;8.03;100.00
41202;BME280;26936;50.524;8.684;2023-03-25T03:56:05;98298.75;;;8.07;100.00
41202;BME280;26936;50.524;8.684;2023-03-25T03:58:36;98301.06;;;8.00;100.00
41202;BME280;26936;50.524;8.684;2023-03-25T04:01:10;98303.69;;;7.94;100.00
41202;BME280;26936;50.524;8.684;2023-03-25T04:04:00;98306.16;;;7.92;100.00
41202;BME280;26936;50.524;8.684;2023-03-25T04:06:34;98307.25;;;7.95;100.00
41202;BME280;26936;50.524;8.684;2023-03-25T04:11:52;98310.41;;;8.06;100.00
41202;BME280;26936;50.524;8.684;2023-03-25T04:14:19;98320.53;;;8.03;100.00
41202;BME280;26936;50.524;8.684;2023-03-25T04:16:44;98319.16;;;8.08;100.00
41202;BME280;26936;50.524;8.684;2023-03-25T04:19:10;98329.91;;;8.09;100.00
41202;BME280;26936;50.524;8.684;2023-03-25T04:21:38;98327.28;;;8.15;100.00
41202;BME280;26936;50.524;8.684;2023-03-25T04:24:03;98327.88;;;8.10;100.00
41202;BME280;26936;50.524;8.684;2023-03-25T04:26:32;98329.94;;;8.18;100.00
41202;BME280;26936;50.524;8.684;2023-03-25T04:29:01;98332.44;;;8.16;100.00
41202;BME280;26936;50.524;8.684;2023-03-25T04:31:28;98342.69;;;8.10;100.00
41202;BME280;26936;50.524;8.684;2023-03-25T04:33:58;98334.09;;;8.05;100.00
41202;BME280;26936;50.524;8.684;2023-03-25T04:36:25;98344.22;;;8.02;100.00
41202;BME280;26936;50.524;8.684;2023-03-25T04:38:57;98341.72;;;8.04;100.00
41202;BME280;26936;50.524;8.684;2023-03-25T04:41:22;98339.69;;;8.05;100.00
41202;BME280;26936;50.524;8.684;2023-03-25T04:43:48;98338.22;;;7.91;100.00
41202;BME280;26936;50.524;8.684;2023-03-25T04:46:14;98346.03;;;7.96;100.00
41202;BME280;26936;50.524;8.684;2023-03-25T04:48:41;98330.94;;;7.94;100.00
41202;BME280;26936;50.524;8.684;2023-03-25T04:51:13;98341.38;;;7.93;100.00
41202;BME280;26936;50.524;8.684;2023-03-25T04:53:39;98337.59;;;7.87;100.00
41202;BME280;26936;50.524;8.684;2023-03-25T04:56:06;98332.78;;;7.88;100.00
41202;BME280;26936;50.524;8.684;2023-03-25T04:58:32;98338.22;;;7.91;100.00
41202;BME280;26936;50.524;8.684;2023-03-25T05:00:58;98338.56;;;7.93;100.00
41202;BME280;26936;50.524;8.684;2023-03-25T05:03:31;98334.19;;;7.92;100.00
41202;BME280;26936;50.524;8.684;2023-03-25T05:05:56;98329.53;;;7.89;100.00
41202;BME280;26936;50.524;8.684;2023-03-25T05:08:21;98330.63;;;7.92;100.00
41202;BME280;26936;50.524;8.684;2023-03-25T05:10:47;98333.09;;;7.90;100.00
41202;BME280;26936;50.524;8.684;2023-03-25T05:13:12;98322.34;;;7.88;100.00
41202;BME280;26936;50.524;8.684;2023-03-25T05:15:38;98332.63;;;7.91;100.00
41202;BME280;26936;50.524;8.684;2023-03-25T05:18:11;98350.22;;;7.92;100.00
41202;BME280;26936;50.524;8.684;2023-03-25T05:20:40;98342.41;;;7.87;100.00
41202;BME280;26936;50.524;8.684;2023-03-25T05:23:06;98355.34;;;7.84;100.00
41202;BME280;26936;50.524;8.684;2023-03-25T05:25:39;98356.09;;;7.85;100.00
41202;BME280;26936;50.524;8.684;2023-03-25T05:28:05;98350.19;;;7.83;100.00
41202;BME280;26936;50.524;8.684;2023-03-25T05:30:34;98361.09;;;7.81;100.00
41202;BME280;26936;50.524;8.684;2023-03-25T05:33:03;98357.16;;;7.78;100.00
41202;BME280;26936;50.524;8.684;2023-03-25T05:35:29;98355.81;;;7.83;100.00
41202;BME280;26936;50.524;8.684;2023-03-25T05:37:54;98372.28;;;7.81;100.00
41202;BME280;26936;50.524;8.684;2023-03-25T05:40:19;98376.06;;;7.87;100.00
41202;BME280;26936;50.524;8.684;2023-03-25T05:42:45;98385.06;;;7.82;100.00
41202;BME280;26936;50.524;8.684;2023-03-25T05:45:11;98381.75;;;7.74;100.00
41202;BME280;26936;50.524;8.684;2023-03-25T05:47:36;98391.22;;;7.68;100.00
41202;BME280;26936;50.524;8.684;2023-03-25T05:50:01;98374.06;;;7.66;100.00
41202;BME280;26936;50.524;8.684;2023-03-25T05:52:27;98373.34;;;7.74;100.00
41202;BME280;26936;50.524;8.684;2023-03-25T05:54:52;98367.09;;;7.70;100.00
41202;BME280;26936;50.524;8.684;2023-03-25T05:57:17;98365.31;;;7.85;100.00
41202;BME280;26936;50.524;8.684;2023-03-25T05:59:43;98371.03;;;7.82;100.00
41202;BME280;26936;50.524;8.684;2023-03-25T06:02:14;98374.97;;;7.84;100.00
41202;BME280;26936;50.524;8.684;2023-03-25T06:04:39;98377.78;;;7.84;100.00
41202;BME280;26936;50.524;8.684;2023-03-25T06:07:09;98387.59;;;7.89;100.00
41202;BME280;26936;50.524;8.684;2023-03-25T06:09:41;98387.00;;;7.94;100.00
41202;BME280;26936;50.524;8.684;2023-03-25T06:12:20;98394.81;;;7.99;100.00
41202;BME280;26936;50.524;8.684;2023-03-25T06:14:46;98395.59;;;7.99;100.00
41202;BME280;26936;50.524;8.684;2023-03-25T06:17:13;98382.56;;;8.05;100.00
41202;BME280;26936;50.524;8.684;2023-03-25T06:19:38;98398.91;;;8.07;100.00
41202;BME280;26936;50.524;8.684;2023-03-25T06:22:05;98409.06;;;8.13;100.00
41202;BME280;26936;50.524;8.684;2023-03-25T06:24:36;98421.16;;;8.23;100.00
41202;BME280;26936;50.524;8.684;2023-03-25T06:27:06;98407.78;;;8.27;100.00
41202;BME280;26936;50.524;8.684;2023-03-25T06:29:35;98415.25;;;8.30;100.00
41202;BME280;26936;50.524;8.684;2023-03-25T06:32:06;98407.00;;;8.36;100.00
41202;BME280;26936;50.524;8.684;2023-03-25T06:34:31;98413.13;;;8.43;99.59
41202;BME280;26936;50.524;8.684;2023-03-25T06:36:58;98415.63;;;8.41;98.90
41202;BME280;26936;50.524;8.684;2023-03-25T06:39:23;98417.69;;;8.50;97.91
41202;BME280;26936;50.524;8.684;2023-03-25T06:41:48;98424.66;;;8.45;96.53
41202;BME280;26936;50.524;8.684;2023-03-25T06:44:14;98429.84;;;8.56;97.43
41202;BME280;26936;50.524;8.684;2023-03-25T06:46:39;98422.53;;;8.58;97.13
41202;BME280;26936;50.524;8.684;2023-03-25T06:49:04;98422.84;;;8.60;95.32
41202;BME280;26936;50.524;8.684;2023-03-25T06:51:30;98414.63;;;8.75;93.97
41202;BME280;26936;50.524;8.684;2023-03-25T06:53:56;98416.22;;;8.85;92.89
41202;BME280;26936;50.524;8.684;2023-03-25T06:56:21;98409.16;;;10.07;88.64
41202;BME280;26936;50.524;8.684;2023-03-25T06:58:46;98401.44;;;11.23;81.73
41202;BME280;26936;50.524;8.684;2023-03-25T07:01:12;98408.53;;;12.09;75.80
41202;BME280;26936;50.524;8.684;2023-03-25T07:03:37;98402.97;;;11.86;75.99
41202;BME280;26936;50.524;8.684;2023-03-25T07:06:04;98404.06;;;11.27;77.38
41202;BME280;26936;50.524;8.684;2023-03-25T07:08:31;98396.03;;;11.34;77.60
41202;BME280;26936;50.524;8.684;2023-03-25T07:11:04;98401.03;;;12.36;72.75
41202;BME280;26936;50.524;8.684;2023-03-25T07:13:30;98398.88;;;12.80;71.47
41202;BME280;26936;50.524;8.684;2023-03-25T07:15:56;98410.72;;;13.13;70.66
41202;BME280;26936;50.524;8.684;2023-03-25T07:18:22;98413.41;;;12.73;70.10
41202;BME280;26936;50.524;8.684;2023-03-25T07:20:47;98412.78;;;11.76;72.67
41202;BME280;26936;50.524;8.684;2023-03-25T07:23:12;98407.34;;;11.49;75.11
41202;BME280;26936;50.524;8.684;2023-03-25T07:25:38;98414.94;;;11.19;76.60
41202;BME280;26936;50.524;8.684;2023-03-25T07:28:04;98413.75;;;10.78;79.64
41202;BME280;26936;50.524;8.684;2023-03-25T07:30:29;98408.00;;;10.40;83.09
41202;BME280;26936;50.524;8.684;2023-03-25T07:32:54;98404.94;;;10.20;83.70
41202;BME280;26936;50.524;8.684;2023-03-25T07:35:20;98402.19;;;9.84;85.50
41202;BME280;26936;50.524;8.684;2023-03-25T07:37:45;98406.44;;;9.80;85.44
41202;BME280;26936;50.524;8.684;2023-03-25T07:40:11;98410.03;;;9.62;86.81
41202;BME280;26936;50.524;8.684;2023-03-25T07:42:36;98408.16;;;9.68;85.82
41202;BME280;26936;50.524;8.684;2023-03-25T07:45:03;98399.28;;;9.60;87.92
41202;BME280;26936;50.524;8.684;2023-03-25T07:47:29;98410.38;;;9.64;87.53
41202;BME280;26936;50.524;8.684;2023-03-25T07:49:55;98408.00;;;9.53;88.23
41202;BME280;26936;50.524;8.684;2023-03-25T07:52:20;98402.84;;;9.61;87.60
41202;BME280;26936;50.524;8.684;2023-03-25T07:54:45;98398.78;;;9.80;86.84
41202;BME280;26936;50.524;8.684;2023-03-25T07:57:10;98402.81;;;9.88;86.73
41202;BME280;26936;50.524;8.684;2023-03-25T07:59:37;98392.53;;;9.85;87.75
41202;BME280;26936;50.524;8.684;2023-03-25T08:02:02;98400.66;;;9.83;84.90
41202;BME280;26936;50.524;8.684;2023-03-25T08:04:27;98396.56;;;9.84;86.31
41202;BME280;26936;50.524;8.684;2023-03-25T08:06:53;98393.91;;;9.81;85.88
41202;BME280;26936;50.524;8.684;2023-03-25T08:09:18;98396.13;;;9.77;84.75
41202;BME280;26936;50.524;8.684;2023-03-25T08:11:43;98393.31;;;9.68;85.18
41202;BME280;26936;50.524;8.684;2023-03-25T08:14:08;98403.47;;;9.65;85.07
41202;BME280;26936;50.524;8.684;2023-03-25T08:16:34;98399.44;;;9.57;87.77
41202;BME280;26936;50.524;8.684;2023-03-25T08:18:59;98410.50;;;9.60;86.99
41202;BME280;26936;50.524;8.684;2023-03-25T08:21:25;98400.34;;;9.63;87.30
41202;BME280;26936;50.524;8.684;2023-03-25T08:23:55;98400.66;;;9.74;87.16
41202;BME280;26936;50.524;8.684;2023-03-25T08:26:27;98396.72;;;9.81;86.15
41202;BME280;26936;50.524;8.684;2023-03-25T08:28:53;98394.72;;;9.81;84.35
41202;BME280;26936;50.524;8.684;2023-03-25T08:31:25;98389.41;;;9.74;84.40
41202;BME280;26936;50.524;8.684;2023-03-25T08:33:58;98406.91;;;9.78;85.28
41202;BME280;26936;50.524;8.684;2023-03-25T08:36:23;98406.28;;;9.83;84.42
41202;BME280;26936;50.524;8.684;2023-03-25T08:38:49;98396.91;;;9.77;82.40
41202;BME280;26936;50.524;8.684;2023-03-25T08:41:15;98394.88;;;9.87;82.06
41202;BME280;26936;50.524;8.684;2023-03-25T08:43:40;98410.00;;;9.89;83.34
41202;BME280;26936;50.524;8.684;2023-03-25T08:46:06;98388.41;;;9.95;82.30
41202;BME280;26936;50.524;8.684;2023-03-25T08:48:31;98381.88;;;9.98;82.63
41202;BME280;26936;50.524;8.684;2023-03-25T08:50:57;98379.97;;;10.04;83.01
41202;BME280;26936;50.524;8.684;2023-03-25T08:53:22;98390.13;;;10.02;83.50
41202;BME280;26936;50.524;8.684;2023-03-25T08:55:55;98386.38;;;10.05;83.09
41202;BME280;26936;50.524;8.684;2023-03-25T08:58:21;98372.78;;;10.12;81.45
41202;BME280;26936;50.524;8.684;2023-03-25T09:00:47;98386.66;;;10.07;83.14
41202;BME280;26936;50.524;8.684;2023-03-25T09:03:12;98387.94;;;10.06;85.72
41202;BME280;26936;50.524;8.684;2023-03-25T09:05:38;98376.38;;;10.13;85.06
41202;BME280;26936;50.524;8.684;2023-03-25T09:08:04;98371.38;;;9.99;86.41
41202;BME280;26936;50.524;8.684;2023-03-25T09:10:29;98375.81;;;9.82;87.53
41202;BME280;26936;50.524;8.684;2023-03-25T09:12:55;98380.66;;;9.81;88.94
41202;BME280;26936;50.524;8.684;2023-03-25T09:15:20;98382.38;;;9.79;90.08
41202;BME280;26936;50.524;8.684;2023-03-25T09:17:46;98373.13;;;9.96;90.95
41202;BME280;26936;50.524;8.684;2023-03-25T09:20:11;98383.25;;;10.03;91.11
41202;BME280;26936;50.524;8.684;2023-03-25T09:22:37;98376.66;;;10.15;89.34
41202;BME280;26936;50.524;8.684;2023-03-25T09:25:03;98387.16;;;10.05;89.26
41202;BME280;26936;50.524;8.684;2023-03-25T09:27:29;98403.41;;;10.10;89.73
41202;BME280;26936;50.524;8.684;2023-03-25T09:29:54;98480.63;;;9.82;89.18
41202;BME280;26936;50.524;8.684;2023-03-25T09:32:19;98495.22;;;9.14;84.28
41202;BME280;26936;50.524;8.684;2023-03-25T09:34:45;98494.38;;;7.82;89.57
41202;BME280;26936;50.524;8.684;2023-03-25T09:37:10;98517.34;;;7.09;95.10
41202;BME280;26936;50.524;8.684;2023-03-25T09:39:35;98518.72;;;6.54;100.00
41202;BME280;26936;50.524;8.684;2023-03-25T09:47:19;98479.75;;;6.09;100.00
41202;BME280;26936;50.524;8.684;2023-03-25T09:49:49;98484.66;;;6.05;100.00
41202;BME280;26936;50.524;8.684;2023-03-25T09:52:22;98469.34;;;6.10;100.00
41202;BME280;26936;50.524;8.684;2023-03-25T09:54:52;98465.47;;;6.20;100.00
41202;BME280;26936;50.524;8.684;2023-03-25T09:57:29;98459.19;;;6.28;100.00
41202;BME280;26936;50.524;8.684;2023-03-25T09:59:56;98456.63;;;6.59;100.00
41202;BME280;26936;50.524;8.684;2023-03-25T10:02:50;98465.25;;;6.77;100.00
41202;BME280;26936;50.524;8.684;2023-03-25T10:08:22;98451.88;;;7.28;100.00
41202;BME280;26936;50.524;8.684;2023-03-25T10:21:48;98430.19;;;9.79;95.22
41202;BME280;26936;50.524;8.684;2023-03-25T10:27:04;98410.91;;;10.87;87.38
41202;BME280;26936;50.524;8.684;2023-03-25T10:29:47;98404.84;;;11.04;87.46
41202;BME280;26936;50.524;8.684;2023-03-25T10:32:16;98401.44;;;11.47;84.42
41202;BME280;26936;50.524;8.684;2023-03-25T10:34:50;98392.94;;;12.43;80.57
41202;BME280;26936;50.524;8.684;2023-03-25T10:37:37;98397.63;;;13.35;74.88
41202;BME280;26936;50.524;8.684;2023-03-25T10:40:29;98398.75;;;13.89;70.47
41202;BME280;26936;50.524;8.684;2023-03-25T10:43:11;98414.19;;;14.39;70.87
41202;BME280;26936;50.524;8.684;2023-03-25T10:45:40;98415.78;;;14.71;68.00
41202;BME280;26936;50.524;8.684;2023-03-25T10:48:24;98424.97;;;14.98;66.81
41202;BME280;26936;50.524;8.684;2023-03-25T10:51:08;98427.34;;;14.73;70.57
41202;BME280;26936;50.524;8.684;2023-03-25T10:53:35;98430.66;;;14.35;67.29
41202;BME280;26936;50.524;8.684;2023-03-25T10:56:11;98430.72;;;13.95;67.70
41202;BME280;26936;50.524;8.684;2023-03-25T10:58:39;98440.25;;;13.72;69.36
41202;BME280;26936;50.524;8.684;2023-03-25T11:01:13;98439.25;;;13.35;69.69
41202;BME280;26936;50.524;8.684;2023-03-25T11:03:41;98430.06;;;13.60;70.97
41202;BME280;26936;50.524;8.684;2023-03-25T11:06:18;98438.28;;;13.58;71.39
41202;BME280;26936;50.524;8.684;2023-03-25T11:11:38;98434.81;;;13.48;69.51
41202;BME280;26936;50.524;8.684;2023-03-25T11:14:03;98425.56;;;13.94;67.44
41202;BME280;26936;50.524;8.684;2023-03-25T11:16:32;98427.13;;;13.49;67.42
41202;BME280;26936;50.524;8.684;2023-03-25T11:19:02;98416.75;;;12.57;70.35
41202;BME280;26936;50.524;8.684;2023-03-25T11:21:32;98430.34;;;12.38;73.72
41202;BME280;26936;50.524;8.684;2023-03-25T11:24:00;98433.41;;;11.82;77.81
41202;BME280;26936;50.524;8.684;2023-03-25T11:26:37;98435.19;;;11.94;75.86
41202;BME280;26936;50.524;8.684;2023-03-25T11:29:11;98434.38;;;11.79;76.49
41202;BME280;26936;50.524;8.684;2023-03-25T11:31:40;98421.09;;;12.08;73.96
41202;BME280;26936;50.524;8.684;2023-03-25T11:34:16;98411.53;;;12.06;72.91
41202;BME280;26936;50.524;8.684;2023-03-25T11:36:51;98412.22;;;12.15;74.16
41202;BME280;26936;50.524;8.684;2023-03-25T11:41:48;98412.22;;;12.30;71.69
41202;BME280;26936;50.524;8.684;2023-03-25T11:44:30;98400.50;;;12.52;71.79
41202;BME280;26936;50.524;8.684;2023-03-25T11:46:59;98412.88;;;13.03;70.82
41202;BME280;26936;50.524;8.684;2023-03-25T11:49:26;98407.81;;;13.93;65.51
41202;BME280;26936;50.524;8.684;2023-03-25T11:52:04;98400.25;;;14.36;63.76
41202;BME280;26936;50.524;8.684;2023-03-25T11:54:31;98402.84;;;14.65;63.36
41202;BME280;26936;50.524;8.684;2023-03-25T11:56:58;98404.06;;;14.58;62.76
41202;BME280;26936;50.524;8.684;2023-03-25T11:59:26;98399.94;;;14.59;62.84
41202;BME280;26936;50.524;8.684;2023-03-25T12:02:03;98395.16;;;14.76;63.36
41202;BME280;26936;50.524;8.684;2023-03-25T12:04:52;98388.63;;;15.44;60.92
41202;BME280;26936;50.524;8.684;2023-03-25T12:07:19;98389.28;;;15.28;59.68
41202;BME280;26936;50.524;8.684;2023-03-25T12:09:53;98383.25;;;15.57;59.64
41202;BME280;26936;50.524;8.684;2023-03-25T12:15:11;98382.13;;;14.90;59.96
41202;BME280;26936;50.524;8.684;2023-03-25T12:18:02;98370.78;;;15.38;58.51
41202;BME280;26936;50.524;8.684;2023-03-25T12:20:45;98369.50;;;14.91;59.54
41202;BME280;26936;50.524;8.684;2023-03-25T12:26:15;98355.97;;;15.12;59.71
41202;BME280;26936;50.524;8.684;2023-03-25T12:28:55;98348.38;;;14.92;60.30
41202;BME280;26936;50.524;8.684;2023-03-25T12:31:35;98340.47;;;15.07;58.06
41202;BME280;26936;50.524;8.684;2023-03-25T12:34:45;98346.16;;;14.65;57.16
41202;BME280;26936;50.524;8.684;2023-03-25T12:42:56;98341.16;;;13.92;58.60
41202;BME280;26936;50.524;8.684;2023-03-25T12:45:42;98342.44;;;13.91;61.24
41202;BME280;26936;50.524;8.684;2023-03-25T13:04:34;98333.88;;;13.34;62.45
41202;BME280;26936;50.524;8.684;2023-03-25T13:07:14;98327.00;;;13.41;63.36
41202;BME280;26936;50.524;8.684;2023-03-25T13:09:53;98328.94;;;13.09;65.38
41202;BME280;26936;50.524;8.684;2023-03-25T13:15:25;98355.47;;;12.28;79.87
41202;BME280;26936;50.524;8.684;2023-03-25T13:18:20;98342.88;;;12.44;80.82
41202;BME280;26936;50.524;8.684;2023-03-25T13:21:15;98330.72;;;12.38;75.86
41202;BME280;26936;50.524;8.684;2023-03-25T13:23:42;98325.72;;;12.47;77.36
41202;BME280;26936;50.524;8.684;2023-03-25T13:26:11;98329.91;;;12.52;74.90
41202;BME280;26936;50.524;8.684;2023-03-25T13:28:42;98325.84;;;12.73;73.69
41202;BME280;26936;50.524;8.684;2023-03-25T13:31:16;98337.06;;;12.87;72.65
41202;BME280;26936;50.524;8.684;2023-03-25T13:33:47;98333.75;;;13.03;75.17
41202;BME280;26936;50.524;8.684;2023-03-25T13:36:28;98325.81;;;13.27;72.28
41202;BME280;26936;50.524;8.684;2023-03-25T13:38:58;98323.78;;;13.08;67.84
41202;BME280;26936;50.524;8.684;2023-03-25T13:41:45;98320.56;;;13.00;65.44
41202;BME280;26936;50.524;8.684;2023-03-25T13:44:18;98328.53;;;12.82;66.02
41202;BME280;26936;50.524;8.684;2023-03-25T13:46:51;98317.50;;;12.64;65.14
41202;BME280;26936;50.524;8.684;2023-03-25T13:52:26;98339.34;;;12.83;68.08
41202;BME280;26936;50.524;8.684;2023-03-25T13:54:59;98341.66;;;12.30;72.64
41202;BME280;26936;50.524;8.684;2023-03-25T13:57:36;98358.41;;;11.90;75.01
41202;BME280;26936;50.524;8.684;2023-03-25T14:00:30;98359.38;;;11.72;78.35
41202;BME280;26936;50.524;8.684;2023-03-25T14:04:11;98361.50;;;11.63;77.88
41202;BME280;26936;50.524;8.684;2023-03-25T14:06:33;98357.44;;;11.93;81.04
41202;BME280;26936;50.524;8.684;2023-03-25T14:11:51;98362.78;;;12.35;77.30
41202;BME280;26936;50.524;8.684;2023-03-25T14:14:22;98361.09;;;12.43;71.95
41202;BME280;26936;50.524;8.684;2023-03-25T14:16:55;98358.06;;;12.46;69.04
41202;BME280;26936;50.524;8.684;2023-03-25T14:19:34;98364.78;;;12.49;68.66
41202;BME280;26936;50.524;8.684;2023-03-25T14:22:09;98347.72;;;12.58;68.06
41202;BME280;26936;50.524;8.684;2023-03-25T14:24:37;98335.66;;;12.57;65.74
41202;BME280;26936;50.524;8.684;2023-03-25T14:30:02;98336.94;;;12.76;66.40
41202;BME280;26936;50.524;8.684;2023-03-25T14:32:37;98340.34;;;12.80;66.51
41202;BME280;26936;50.524;8.684;2023-03-25T14:43:23;98326.66;;;12.93;60.28
41202;BME280;26936;50.524;8.684;2023-03-25T14:48:41;98315.31;;;13.08;59.11
41202;BME280;26936;50.524;8.684;2023-03-25T14:51:20;98316.84;;;13.09;57.93
41202;BME280;26936;50.524;8.684;2023-03-25T14:54:01;98313.25;;;13.08;58.28
41202;BME280;26936;50.524;8.684;2023-03-25T14:56:35;98319.00;;;12.99;57.78
41202;BME280;26936;50.524;8.684;2023-03-25T14:59:22;98304.63;;;13.17;57.64
41202;BME280;26936;50.524;8.684;2023-03-25T15:01:49;98296.31;;;13.08;58.20
41202;BME280;26936;50.524;8.684;2023-03-25T15:04:32;98305.78;;;12.91;60.21